Time;durP1;ratioP1;P1;durP2;ratioP2;P2;SDS_P1;SDS_P2;PMS_P1;PMS_P2;Temp;Humidity;BMP_temperature;BMP_pressure;BME280_temperature;BME280_humidity;BME280_pressure;Samples;Min_cycle;Max_cycle;Signal;HPM_P1;HPM_P2
2021/04/29 17:31:53;;;;;;;7.43;2.78;;;20.00;54.70;;;;;;5129378;27;20305;-76
2021/04/29 17:34:19;;;;;;;6.10;2.42;;;20.40;53.40;;;;;;5127196;27;20036;-72
2021/04/29 17:36:48;;;;;;;3.78;2.00;;;19.30;53.20;;;;;;5129317;28;20065;-84
2021/04/29 17:39:14;;;;;;;0.70;0.70;;;18.00;56.50;;;;;;5146662;27;20047;-79
2021/04/29 17:41:40;;;;;;;1.45;0.60;;;18.10;54.80;;;;;;5131101;28;20035;-77
2021/04/29 17:44:08;;;;;;;1.77;1.35;;;17.50;55.60;;;;;;5152985;27;20528;-78
2021/04/29 17:46:34;;;;;;;0.50;0.50;;;16.80;56.90;;;;;;5132462;28;20024;-78
2021/04/29 17:49:00;;;;;;;4.65;0.82;;;16.10;59.10;;;;;;5131118;28;20034;-78
2021/04/29 17:51:26;;;;;;;0.40;0.40;;;15.50;60.90;;;;;;5129717;28;20075;-78
2021/04/29 17:53:52;;;;;;;0.70;0.63;;;15.20;62.20;;;;;;5137101;28;20060;-79
2021/04/29 17:56:17;;;;;;;0.50;0.50;;;14.80;63.70;;;;;;5129593;28;20130;-78
2021/04/29 17:58:43;;;;;;;0.52;0.50;;;;;;;;;;5131941;27;20045;-78
2021/04/29 18:01:10;;;;;;;0.82;0.70;;;;;;;;;;5137580;28;20023;-78
2021/04/29 18:03:36;;;;;;;1.90;0.60;;;;;;;;;;5136449;27;20027;-78
2021/04/29 18:06:02;;;;;;;2.35;0.88;;;;;;;;;;5133439;28;20481;-78
2021/04/29 18:08:28;;;;;;;2.83;1.05;;;;;;;;;;5136902;28;20035;-78
2021/04/29 18:10:57;;;;;;;0.52;0.52;;;;;;;;;;5137869;28;20020;-78
2021/04/29 18:13:23;;;;;;;0.47;0.47;;;;;;;;;;5151671;27;20051;-79
2021/04/29 18:15:49;;;;;;;1.27;0.60;;;;;;;;;;5151504;27;20035;-78
2021/04/29 18:18:15;;;;;;;1.08;0.60;;;;;;;;;;5128607;28;20024;-78
2021/04/29 18:20:42;;;;;;;2.08;0.60;;;;;;;;;;5119501;28;20030;-78
2021/04/29 18:23:08;;;;;;;0.40;0.40;;;;;;;;;;5143296;28;20036;-78
2021/04/29 18:25:34;;;;;;;0.60;0.52;;;;;;;;;;5143052;28;20114;-78
2021/04/29 18:28:00;;;;;;;0.30;0.30;;;;;;;;;;5147609;27;20035;-78
2021/04/29 18:30:27;;;;;;;0.38;0.30;;;;;;;;;;5158800;27;20122;-77
2021/04/29 18:32:54;;;;;;;3.78;1.50;;;;;;;;;;5144029;28;20118;-78
2021/04/29 18:35:20;;;;;;;2.45;0.80;;;;;;;;;;5146635;28;20020;-78
2021/04/29 18:37:46;;;;;;;0.50;0.50;;;;;;;;;;5133413;28;20032;-78
2021/04/29 18:40:13;;;;;;;1.92;0.70;;;;;;;;;;5130030;28;20008;-77
2021/04/29 18:42:41;;;;;;;0.60;0.50;;;;;;;;;;5126201;28;20028;-78
2021/04/29 18:45:08;;;;;;;0.63;0.50;;;;;;;;;;5127006;28;20091;-78
2021/04/29 18:47:34;;;;;;;0.38;0.35;;;;;;;;;;5124446;28;20055;-79
2021/04/29 18:50:00;;;;;;;0.63;0.45;;;;;;;;;;5123115;28;20024;-79
2021/04/29 18:52:29;;;;;;;0.68;0.40;;;;;;;;;;5122828;28;20042;-79
2021/04/29 18:54:56;;;;;;;0.40;0.40;;;;;;;;;;5125795;28;20126;-80
2021/04/29 18:57:22;;;;;;;4.05;1.80;;;;;;;;;;5124986;28;20023;-77
2021/04/29 18:59:48;;;;;;;2.65;1.10;;;;;;;;;;5123759;28;20062;-77
2021/04/29 19:02:14;;;;;;;1.65;1.00;;;;;;;;;;5122716;28;20019;-78
2021/04/29 19:04:41;;;;;;;2.30;1.20;;;;;;;;;;5121204;28;20032;-78
2021/04/29 19:07:07;;;;;;;2.25;1.30;;;;;;;;;;5120777;28;20030;-79
2021/04/29 19:09:33;;;;;;;3.13;1.63;;;;;;;;;;5121794;28;20038;-78
2021/04/29 19:12:02;;;;;;;2.33;1.70;;;;;;;;;;5112141;28;20106;-77
2021/04/29 19:14:30;;;;;;;2.53;1.15;;;;;;;;;;5109813;27;20022;-78
2021/04/29 19:16:56;;;;;;;0.93;0.93;;;;;;;;;;5140181;27;20031;-79
2021/04/29 19:19:22;;;;;;;1.88;1.20;;;;;;;;;;5138444;27;20030;-77
2021/04/29 19:21:48;;;;;;;1.73;1.63;;;;;;;;;;5123949;27;20027;-77
2021/04/29 19:24:14;;;;;;;1.55;1.30;;;;;;;;;;5118482;28;20032;-77
2021/04/29 19:26:40;;;;;;;2.97;1.55;;;;;;;;;;5121633;28;20034;-78
2021/04/29 19:29:06;;;;;;;2.75;1.45;;;;;;;;;;5127271;28;20384;-79
2021/04/29 19:31:32;;;;;;;1.45;1.02;;;;;;;;;;5121666;28;20023;-79
2021/04/29 19:33:59;;;;;;;1.88;1.17;;;;;;;;;;5124635;28;20047;-77
2021/04/29 19:36:25;;;;;;;2.72;1.05;;;;;;;;;;5124387;28;20019;-78
2021/04/29 19:38:56;;;;;;;4.65;1.77;;;;;;;;;;5132512;28;20110;-78
2021/04/29 19:41:22;;;;;;;2.38;1.73;;;;;;;;;;5123548;28;20064;-78
2021/04/29 19:43:48;;;;;;;4.28;1.40;;;;;;;;;;5140940;27;20031;-79
2021/04/29 19:46:14;;;;;;;3.28;1.50;;;;;;;;;;5126165;27;20024;-79
2021/04/29 19:48:40;;;;;;;2.25;1.38;;;;;;;;;;5120236;28;20023;-78
2021/04/29 19:51:07;;;;;;;1.02;0.98;;;;;;;;;;5118283;28;20035;-80
2021/04/29 19:53:33;;;;;;;5.03;2.10;;;;;;;;;;5129247;28;20031;-77
2021/04/29 19:55:59;;;;;;;4.05;2.00;;;;;;;;;;5131299;27;20040;-78
2021/04/29 19:58:25;;;;;;;2.70;1.70;;;;;;;;;;5112879;27;20116;-77
2021/04/29 20:00:51;;;;;;;3.10;1.88;;;;;;;;;;5121936;28;20016;-79
2021/04/29 20:03:17;;;;;;;2.25;1.42;;;;;;;;;;5119485;28;20023;-79
2021/04/29 20:05:43;;;;;;;2.78;1.95;;;;;;;;;;5121751;28;20402;-79
2021/04/29 20:08:09;;;;;;;2.70;1.77;;;;;;;;;;5121555;28;20019;-78
2021/04/29 20:10:36;;;;;;;1.73;1.52;;;;;;;;;;5119484;28;20058;-79
2021/04/29 20:13:02;;;;;;;3.17;1.95;;;;;;;;;;5133225;27;20622;-80
2021/04/29 20:15:28;;;;;;;2.85;1.83;;;;;;;;;;5140091;27;20019;-77
2021/04/29 20:17:54;;;;;;;4.68;2.10;;;;;;;;;;5141106;27;20075;-77
2021/04/29 20:20:21;;;;;;;2.35;2.00;;;;;;;;;;5128007;27;20069;-77
2021/04/29 20:22:47;;;;;;;2.95;2.20;;;;;;;;;;5118606;28;20023;-77
2021/04/29 20:25:13;;;;;;;3.80;2.70;;;;;;;;;;5120838;28;20027;-78
2021/04/29 20:27:40;;;;;;;5.15;2.72;;;;;;;;;;5121818;28;20023;-77
2021/04/29 20:30:07;;;;;;;3.17;2.42;;;;;;;;;;5118175;28;20031;-78
2021/04/29 20:32:34;;;;;;;2.35;2.10;;;;;;;;;;5120459;28;20388;-78
2021/04/29 20:35:00;;;;;;;2.92;2.47;;;;;;;;;;5119647;28;20051;-78
2021/04/29 20:37:26;;;;;;;2.85;2.30;;;;;;;;;;5127922;28;20212;-77
2021/04/29 20:39:52;;;;;;;2.42;2.22;;;;;;;;;;5136653;28;20134;-76
2021/04/29 20:42:19;;;;;;;3.78;2.50;;;;;;;;;;5138182;27;20019;-78
2021/04/29 20:44:45;;;;;;;3.13;2.33;;;;;;;;;;5126016;27;20375;-77
2021/04/29 20:47:12;;;;;;;5.20;3.00;;;;;;;;;;5119126;28;20019;-77
2021/04/29 20:49:38;;;;;;;5.65;3.35;;;;;;;;;;5118825;28;20078;-77
2021/04/29 20:52:04;;;;;;;3.35;2.38;;;;;;;;;;5120712;28;20015;-77
2021/04/29 20:54:30;;;;;;;7.90;3.38;;;;;;;;;;5118941;28;20015;-76
2021/04/29 20:56:58;;;;;;;5.22;3.42;;;;;;;;;;5139003;27;20030;-78
2021/04/29 20:59:24;;;;;;;3.58;3.15;;;;;;;;;;5132977;27;20039;-77
2021/04/29 21:01:50;;;;;;;4.07;2.58;;;;;;;;;;5121712;28;20035;-77
2021/04/29 21:04:16;;;;;;;3.13;2.35;;;;;;;;;;5121334;28;20028;-78
2021/04/29 21:06:42;;;;;;;5.55;2.88;;;;;;;;;;5118014;28;20035;-78
2021/04/29 21:09:09;;;;;;;3.38;2.47;;;;;;;;;;5119661;28;20032;-78
2021/04/29 21:11:36;;;;;;;5.72;2.70;;;;;;;;;;5128729;28;20099;-76
2021/04/29 21:14:03;;;;;;;4.63;2.53;;;;;;;;;;5143073;27;20077;-77
2021/04/29 21:16:30;;;;;;;4.05;1.80;;;;;;;;;;5142059;27;20012;-77
2021/04/29 21:18:56;;;;;;;2.65;1.88;;;;;;;;;;5122880;27;20027;-78
2021/04/29 21:21:22;;;;;;;2.00;1.90;;;;;;;;;;5119918;28;20103;-78
2021/04/29 21:23:48;;;;;;;3.72;2.80;;;;;;;;;;5121090;28;20074;-78
2021/04/29 21:26:15;;;;;;;2.45;2.20;;;;;;;;;;5119901;28;20101;-78
2021/04/29 21:28:42;;;;;;;4.05;2.58;;;;;;;;;;5108633;22;20095;-82
2021/04/29 21:31:08;;;;;;;2.78;2.50;;;;;;;;;;5063719;28;20402;-80
2021/04/29 21:33:34;;;;;;;1.88;1.70;;;;;;;;;;5062900;28;20029;-78
2021/04/29 21:36:00;;;;;;;3.45;2.33;;;;;;;;;;5045711;28;20072;-81
2021/04/29 21:38:26;;;;;;;5.10;2.38;;;;;;;;;;5045756;28;20056;-80
2021/04/29 21:40:52;;;;;;;5.13;2.72;;;;;;;;;;5068356;28;20017;-80
2021/04/29 21:43:19;;;;;;;3.05;2.28;;;;;;;;;;5048055;28;20017;-79
2021/04/29 21:45:51;;;;;;;4.38;2.22;;;;;;;;;;5050430;28;20494;-81
2021/04/29 21:48:17;;;;;;;4.50;3.58;;;;;;;;;;5043369;28;20022;-81
2021/04/29 21:50:43;;;;;;;4.65;3.75;;;;;;;;;;5047163;28;20030;-79
2021/04/29 21:53:09;;;;;;;5.15;3.67;;;;;;;;;;5049637;28;20022;-80
2021/04/29 21:55:35;;;;;;;5.10;3.83;;;;;;;;;;5044381;28;20017;-82
2021/04/29 21:58:02;;;;;;;3.28;2.90;;;;;;;;;;5044775;28;20056;-82
2021/04/29 22:00:30;;;;;;;5.28;3.38;;;;;;;;;;5042978;28;20036;-81
2021/04/29 22:02:56;;;;;;;5.25;3.28;;;;;;;;;;5043191;28;20025;-81
2021/04/29 22:05:24;;;;;;;3.70;2.60;;;;;;;;;;5044490;28;20032;-82
2021/04/29 22:07:50;;;;;;;3.63;3.10;;;;;;;;;;5027911;28;20032;-82
2021/04/29 22:10:17;;;;;;;3.97;3.45;;;;;;;;;;5027427;28;20026;-81
2021/04/29 22:12:43;;;;;;;4.95;3.35;;;;;;;;;;5049714;28;20069;-81
2021/04/29 22:15:09;;;;;;;4.63;2.83;;;;;;;;;;5035785;28;20116;-79
2021/04/29 22:17:35;;;;;;;3.63;3.30;;;;;;;;;;5064611;28;20076;-80
2021/04/29 22:20:01;;;;;;;4.75;3.70;;;;;;;;;;5070700;28;20048;-81
2021/04/29 22:22:27;;;;;;;3.88;3.10;;;;;;;;;;5054269;28;20039;-79
2021/04/29 22:24:53;;;;;;;4.10;2.85;;;;;;;;;;5067553;28;20045;-81
2021/04/29 22:27:19;;;;;;;3.60;3.10;;;;;;;;;;5031671;28;20017;-82
2021/04/29 22:29:45;;;;;;;2.83;2.53;;;;;;;;;;5048657;28;20065;-81
2021/04/29 22:32:11;;;;;;;2.72;2.53;;;;;;;;;;5046209;28;20026;-79
2021/04/29 22:34:37;;;;;;;3.58;2.80;;;;;;;;;;5046411;28;20112;-81
2021/04/29 22:37:04;;;;;;;3.67;2.80;;;;;;;;;;5030115;28;20024;-80
2021/04/29 22:39:30;;;;;;;3.22;2.42;;;;;;;;;;5048586;28;20060;-79
2021/04/29 22:41:56;;;;;;;1.73;1.63;;;;;;;;;;5056437;28;20040;-82
2021/04/29 22:44:22;;;;;;;3.50;2.50;;;;;;;;;;5054205;28;20032;-80
2021/04/29 22:47:01;;;;;;;4.32;3.40;;;;;;;;;;5045973;28;20029;-81
2021/04/29 22:49:28;;;;;;;2.78;2.42;;;;;;;;;;5028199;28;20095;-81
2021/04/29 22:51:54;;;;;;;4.15;3.63;;;;;;;;;;5057917;28;20029;-79
2021/04/29 22:54:20;;;;;;;4.60;3.58;;;;;;;;;;5039249;28;20032;-79
2021/04/29 22:56:47;;;;;;;3.70;3.22;;;;;;;;;;5043670;28;20018;-81
2021/04/29 22:59:15;;;;;;;5.90;3.60;;;;;;;;;;5028480;28;20036;-80
2021/04/29 23:01:41;;;;;;;5.00;2.80;;;;;;;;;;5049449;28;20370;-81
2021/04/29 23:04:07;;;;;;;5.78;2.90;;;;;;;;;;5044870;28;20036;-79
2021/04/29 23:06:33;;;;;;;5.15;4.32;;;;;;;;;;5063845;28;20021;-81
2021/04/29 23:08:59;;;;;;;3.88;3.20;;;;;;;;;;5043682;28;20056;-81
2021/04/29 23:11:25;;;;;;;3.53;2.75;;;;;;;;;;5029710;28;20025;-80
2021/04/29 23:13:51;;;;;;;5.00;4.18;;;;;;;;;;5041591;28;20048;-82
2021/04/29 23:16:18;;;;;;;4.88;2.85;;;;;;;;;;5048591;28;20017;-81
2021/04/29 23:18:44;;;;;;;5.05;2.88;;;;;;;;;;5047510;28;20025;-82
2021/04/29 23:21:10;;;;;;;2.75;2.55;;;;;;;;;;5046858;28;20057;-82
2021/04/29 23:23:36;;;;;;;5.25;3.45;;;;;;;;;;5048655;28;20072;-81
2021/04/29 23:26:02;;;;;;;5.28;3.78;;;;;;;;;;5048582;28;20076;-80
2021/04/29 23:28:28;;;;;;;3.33;2.95;;;;;;;;;;5045906;28;20021;-82
2021/04/29 23:30:54;;;;;;;3.83;2.65;;;;;;;;;;5059774;28;20032;-79
2021/04/29 23:33:21;;;;;;;3.63;2.42;;;;;;;;;;5072618;28;20025;-80
2021/04/29 23:35:47;;;;;;;4.10;2.95;;;;;;;;;;5073185;28;20124;-81
2021/04/29 23:38:13;;;;;;;2.90;2.60;;;;;;;;;;5073734;28;20025;-79
2021/04/29 23:40:39;;;;;;;4.28;2.15;;;;;;;;;;5051893;28;20029;-79
2021/04/29 23:43:06;;;;;;;4.15;2.22;;;;;;;;;;5057204;28;20098;-80
2021/04/29 23:45:32;;;;;;;2.15;1.95;;;;;;;;;;5051764;28;20092;-78
2021/04/29 23:47:58;;;;;;;3.15;2.20;;;;;;;;;;5052835;28;20052;-80
2021/04/29 23:50:24;;;;;;;3.45;2.25;;;;;;;;;;5053359;28;20034;-79
2021/04/29 23:52:50;;;;;;;4.68;2.63;;;;;;;;;;5053514;28;20108;-79
2021/04/29 23:55:16;;;;;;;2.58;2.13;;;;;;;;;;5049646;28;20413;-81
2021/04/29 23:57:42;;;;;;;2.25;1.90;;;;;;;;;;5037376;28;20036;-81
